Meadia Heights, Pennsylvania
Current Conditions -  °F | °C
As of 3:53 AM on Thursday 18 Dec 2014 (Local Time) from KLNS Reporting Station
Clear Clear  
Wind Chill: 21°   Ceiling: Unl
Heat Index: 33°   Visibility: 10mi
Dew Point: 17°   Wind: 22mph
Humidity: 52%   Direction: 290°WNW
Pressure: 30.02"   Gusts: 30mph
Location:  40.0158°N, 76.2452°W
Report Text: KLNS 180853Z AUTO 29019G26KT 10SM CLR 01/M08 A3002 RMK AO2 PK WND 30032/0824 SLP169 T00061083 50006
Loading
Personal Weather Stations






























Interactive Weather Map New forecast layout! Learn more

10-Day Weather Forecast

Advertisements
Track Severe Weather on mobile